sensor_id;sensor_type;location;lat;lon;timestamp;temperature;humidity
68274;SHT30;55104;47.356;19.448;2022-11-15T00:02:43;4.28;98.10
68274;SHT30;55104;47.356;19.448;2022-11-15T00:06:04;4.33;98.40
68274;SHT30;55104;47.356;19.448;2022-11-15T00:09:25;4.30;98.54
68274;SHT30;55104;47.356;19.448;2022-11-15T00:12:46;4.32;98.60
68274;SHT30;55104;47.356;19.448;2022-11-15T00:16:08;4.25;98.65
68274;SHT30;55104;47.356;19.448;2022-11-15T00:19:29;4.23;98.55
68274;SHT30;55104;47.356;19.448;2022-11-15T00:22:49;4.23;98.92
68274;SHT30;55104;47.356;19.448;2022-11-15T00:26:14;4.32;98.94
68274;SHT30;55104;47.356;19.448;2022-11-15T00:29:34;4.26;98.88
68274;SHT30;55104;47.356;19.448;2022-11-15T00:33:17;4.28;99.23
68274;SHT30;55104;47.356;19.448;2022-11-15T00:36:38;4.26;98.99
68274;SHT30;55104;47.356;19.448;2022-11-15T00:39:59;4.28;99.17
68274;SHT30;55104;47.356;19.448;2022-11-15T00:43:20;4.40;99.22
68274;SHT30;55104;47.356;19.448;2022-11-15T00:46:40;4.45;98.91
68274;SHT30;55104;47.356;19.448;2022-11-15T00:50:01;4.52;98.68
68274;SHT30;55104;47.356;19.448;2022-11-15T00:53:22;4.52;98.23
68274;SHT30;55104;47.356;19.448;2022-11-15T00:56:43;4.56;98.03
68274;SHT30;55104;47.356;19.448;2022-11-15T01:00:04;4.46;98.03
68274;SHT30;55104;47.356;19.448;2022-11-15T01:03:24;4.52;97.83
68274;SHT30;55104;47.356;19.448;2022-11-15T01:06:45;4.52;97.93
68274;SHT30;55104;47.356;19.448;2022-11-15T01:10:07;4.45;97.79
68274;SHT30;55104;47.356;19.448;2022-11-15T01:13:30;4.50;98.05
68274;SHT30;55104;47.356;19.448;2022-11-15T01:16:52;4.43;97.87
68274;SHT30;55104;47.356;19.448;2022-11-15T01:20:12;4.52;97.98
68274;SHT30;55104;47.356;19.448;2022-11-15T01:23:34;4.52;97.84
68274;SHT30;55104;47.356;19.448;2022-11-15T01:26:54;4.56;97.87
68274;SHT30;55104;47.356;19.448;2022-11-15T01:30:16;4.60;97.90
68274;SHT30;55104;47.356;19.448;2022-11-15T01:33:37;4.70;97.80
68274;SHT30;55104;47.356;19.448;2022-11-15T01:36:57;4.66;97.64
68274;SHT30;55104;47.356;19.448;2022-11-15T01:40:20;4.63;97.82
68274;SHT30;55104;47.356;19.448;2022-11-15T01:43:40;4.68;97.59
68274;SHT30;55104;47.356;19.448;2022-11-15T01:47:29;4.61;97.70
68274;SHT30;55104;47.356;19.448;2022-11-15T01:50:49;4.64;97.85
68274;SHT30;55104;47.356;19.448;2022-11-15T01:54:13;4.57;97.93
68274;SHT30;55104;47.356;19.448;2022-11-15T01:57:35;4.54;98.41
68274;SHT30;55104;47.356;19.448;2022-11-15T02:00:56;4.66;98.25
68274;SHT30;55104;47.356;19.448;2022-11-15T02:04:21;4.71;98.22
68274;SHT30;55104;47.356;19.448;2022-11-15T02:07:43;4.74;98.07
68274;SHT30;55104;47.356;19.448;2022-11-15T02:11:07;4.77;98.07
68274;SHT30;55104;47.356;19.448;2022-11-15T02:14:30;4.87;97.70
68274;SHT30;55104;47.356;19.448;2022-11-15T02:18:28;4.83;97.54
68274;SHT30;55104;47.356;19.448;2022-11-15T02:22:10;4.83;97.84
68274;SHT30;55104;47.356;19.448;2022-11-15T02:25:43;4.84;97.84
68274;SHT30;55104;47.356;19.448;2022-11-15T02:29:11;4.81;97.95
68274;SHT30;55104;47.356;19.448;2022-11-15T02:39:31;4.91;97.83
68274;SHT30;55104;47.356;19.448;2022-11-15T02:42:56;4.89;97.57
68274;SHT30;55104;47.356;19.448;2022-11-15T02:46:46;4.85;97.82
68274;SHT30;55104;47.356;19.448;2022-11-15T02:50:29;4.88;97.69
68274;SHT30;55104;47.356;19.448;2022-11-15T02:53:52;4.87;97.57
68274;SHT30;55104;47.356;19.448;2022-11-15T02:57:16;4.94;97.47
68274;SHT30;55104;47.356;19.448;2022-11-15T03:01:11;4.99;97.47
68274;SHT30;55104;47.356;19.448;2022-11-15T03:04:55;4.99;97.16
68274;SHT30;55104;47.356;19.448;2022-11-15T03:08:32;5.04;97.13
68274;SHT30;55104;47.356;19.448;2022-11-15T03:12:03;4.89;97.13
68274;SHT30;55104;47.356;19.448;2022-11-15T03:15:35;4.88;97.37
68274;SHT30;55104;47.356;19.448;2022-11-15T03:19:19;4.89;97.48
68274;SHT30;55104;47.356;19.448;2022-11-15T03:22:44;4.81;97.72
68274;SHT30;55104;47.356;19.448;2022-11-15T03:26:09;4.73;98.24
68274;SHT30;55104;47.356;19.448;2022-11-15T03:29:34;4.80;98.14
68274;SHT30;55104;47.356;19.448;2022-11-15T03:32:59;4.73;98.19
68274;SHT30;55104;47.356;19.448;2022-11-15T03:36:22;4.77;98.16
68274;SHT30;55104;47.356;19.448;2022-11-15T03:39:43;4.77;98.35
68274;SHT30;55104;47.356;19.448;2022-11-15T03:47:07;4.76;98.53
68274;SHT30;55104;47.356;19.448;2022-11-15T03:50:29;4.87;98.26
68274;SHT30;55104;47.356;19.448;2022-11-15T03:53:50;4.81;98.22
68274;SHT30;55104;47.356;19.448;2022-11-15T03:57:11;4.78;98.13
68274;SHT30;55104;47.356;19.448;2022-11-15T04:00:34;4.73;98.45
68274;SHT30;55104;47.356;19.448;2022-11-15T04:03:54;4.74;98.54
68274;SHT30;55104;47.356;19.448;2022-11-15T04:07:15;4.71;98.46
68274;SHT30;55104;47.356;19.448;2022-11-15T04:10:37;4.73;98.47
68274;SHT30;55104;47.356;19.448;2022-11-15T04:13:58;4.74;98.52
68274;SHT30;55104;47.356;19.448;2022-11-15T04:17:18;4.80;98.44
68274;SHT30;55104;47.356;19.448;2022-11-15T04:20:44;4.84;98.22
68274;SHT30;55104;47.356;19.448;2022-11-15T04:24:23;4.85;98.07
68274;SHT30;55104;47.356;19.448;2022-11-15T04:27:44;4.85;98.19
68274;SHT30;55104;47.356;19.448;2022-11-15T04:31:04;4.83;98.21
68274;SHT30;55104;47.356;19.448;2022-11-15T04:34:25;4.83;98.17
68274;SHT30;55104;47.356;19.448;2022-11-15T04:37:46;4.83;98.14
68274;SHT30;55104;47.356;19.448;2022-11-15T04:41:08;4.87;98.26
68274;SHT30;55104;47.356;19.448;2022-11-15T04:44:29;4.78;98.33
68274;SHT30;55104;47.356;19.448;2022-11-15T04:47:50;4.76;98.49
68274;SHT30;55104;47.356;19.448;2022-11-15T04:51:10;4.76;98.41
68274;SHT30;55104;47.356;19.448;2022-11-15T04:54:31;4.73;98.51
68274;SHT30;55104;47.356;19.448;2022-11-15T04:58:01;4.76;98.42
68274;SHT30;55104;47.356;19.448;2022-11-15T05:01:22;4.74;98.42
68274;SHT30;55104;47.356;19.448;2022-11-15T05:04:43;4.78;98.44
68274;SHT30;55104;47.356;19.448;2022-11-15T05:08:03;4.81;98.54
68274;SHT30;55104;47.356;19.448;2022-11-15T05:11:24;4.87;98.46
68274;SHT30;55104;47.356;19.448;2022-11-15T05:14:45;4.85;98.34
68274;SHT30;55104;47.356;19.448;2022-11-15T05:18:11;4.85;98.42
68274;SHT30;55104;47.356;19.448;2022-11-15T05:21:31;4.85;98.44
68274;SHT30;55104;47.356;19.448;2022-11-15T05:24:52;4.89;98.35
68274;SHT30;55104;47.356;19.448;2022-11-15T05:28:12;4.83;98.27
68274;SHT30;55104;47.356;19.448;2022-11-15T05:31:33;4.87;98.32
68274;SHT30;55104;47.356;19.448;2022-11-15T05:34:54;4.84;98.33
68274;SHT30;55104;47.356;19.448;2022-11-15T05:38:14;4.91;98.28
68274;SHT30;55104;47.356;19.448;2022-11-15T05:41:48;4.94;98.05
68274;SHT30;55104;47.356;19.448;2022-11-15T05:45:09;5.01;97.91
68274;SHT30;55104;47.356;19.448;2022-11-15T05:48:30;4.95;97.94
68274;SHT30;55104;47.356;19.448;2022-11-15T05:51:51;4.89;97.89
68274;SHT30;55104;47.356;19.448;2022-11-15T05:55:12;4.95;97.84
68274;SHT30;55104;47.356;19.448;2022-11-15T05:58:33;4.98;97.80
68274;SHT30;55104;47.356;19.448;2022-11-15T06:01:54;4.94;97.88
68274;SHT30;55104;47.356;19.448;2022-11-15T06:05:14;5.02;97.53
68274;SHT30;55104;47.356;19.448;2022-11-15T06:08:35;5.04;97.61
68274;SHT30;55104;47.356;19.448;2022-11-15T06:11:55;4.99;97.52
68274;SHT30;55104;47.356;19.448;2022-11-15T06:15:15;5.08;97.32
68274;SHT30;55104;47.356;19.448;2022-11-15T06:18:36;4.99;97.52
68274;SHT30;55104;47.356;19.448;2022-11-15T06:21:57;5.02;97.65
68274;SHT30;55104;47.356;19.448;2022-11-15T06:25:17;5.12;97.59
68274;SHT30;55104;47.356;19.448;2022-11-15T06:28:37;5.08;97.39
68274;SHT30;55104;47.356;19.448;2022-11-15T06:31:58;5.19;97.41
68274;SHT30;55104;47.356;19.448;2022-11-15T06:35:18;5.21;97.08
68274;SHT30;55104;47.356;19.448;2022-11-15T06:38:39;5.32;96.98
68274;SHT30;55104;47.356;19.448;2022-11-15T06:41:59;5.32;96.78
68274;SHT30;55104;47.356;19.448;2022-11-15T06:45:20;5.28;96.88
68274;SHT30;55104;47.356;19.448;2022-11-15T06:48:40;5.25;97.03
68274;SHT30;55104;47.356;19.448;2022-11-15T06:52:01;5.25;97.40
68274;SHT30;55104;47.356;19.448;2022-11-15T06:55:21;5.23;97.16
68274;SHT30;55104;47.356;19.448;2022-11-15T06:58:41;5.23;97.16
68274;SHT30;55104;47.356;19.448;2022-11-15T07:02:03;5.38;97.22
68274;SHT30;55104;47.356;19.448;2022-11-15T07:05:23;5.39;96.94
68274;SHT30;55104;47.356;19.448;2022-11-15T07:08:44;5.35;96.63
68274;SHT30;55104;47.356;19.448;2022-11-15T07:12:06;5.43;96.71
68274;SHT30;55104;47.356;19.448;2022-11-15T07:15:27;5.50;96.49
68274;SHT30;55104;47.356;19.448;2022-11-15T07:18:47;5.63;96.34
68274;SHT30;55104;47.356;19.448;2022-11-15T07:22:07;5.66;95.93
68274;SHT30;55104;47.356;19.448;2022-11-15T07:25:28;5.67;95.97
68274;SHT30;55104;47.356;19.448;2022-11-15T07:28:49;5.66;95.87
68274;SHT30;55104;47.356;19.448;2022-11-15T07:32:10;5.56;95.79
68274;SHT30;55104;47.356;19.448;2022-11-15T07:35:30;5.61;96.04
68274;SHT30;55104;47.356;19.448;2022-11-15T07:38:51;5.69;95.94
68274;SHT30;55104;47.356;19.448;2022-11-15T07:42:11;5.69;95.68
68274;SHT30;55104;47.356;19.448;2022-11-15T07:45:50;5.84;95.84
68274;SHT30;55104;47.356;19.448;2022-11-15T07:49:17;5.80;95.00
68274;SHT30;55104;47.356;19.448;2022-11-15T07:52:38;5.77;95.40
68274;SHT30;55104;47.356;19.448;2022-11-15T07:55:59;5.80;95.21
68274;SHT30;55104;47.356;19.448;2022-11-15T07:59:20;5.86;95.14
68274;SHT30;55104;47.356;19.448;2022-11-15T08:02:41;5.80;95.49
68274;SHT30;55104;47.356;19.448;2022-11-15T08:06:02;5.87;95.57
68274;SHT30;55104;47.356;19.448;2022-11-15T08:09:22;5.95;95.40
68274;SHT30;55104;47.356;19.448;2022-11-15T08:12:43;5.95;95.68
68274;SHT30;55104;47.356;19.448;2022-11-15T08:16:03;5.93;95.46
68274;SHT30;55104;47.356;19.448;2022-11-15T08:19:26;5.88;96.00
68274;SHT30;55104;47.356;19.448;2022-11-15T08:22:46;5.97;95.86
68274;SHT30;55104;47.356;19.448;2022-11-15T08:26:06;5.95;95.73
68274;SHT30;55104;47.356;19.448;2022-11-15T08:29:27;6.05;95.89
68274;SHT30;55104;47.356;19.448;2022-11-15T08:32:49;6.24;95.50
68274;SHT30;55104;47.356;19.448;2022-11-15T08:36:15;6.28;95.24
68274;SHT30;55104;47.356;19.448;2022-11-15T08:39:36;6.28;95.12
68274;SHT30;55104;47.356;19.448;2022-11-15T08:42:56;6.16;94.92
68274;SHT30;55104;47.356;19.448;2022-11-15T08:46:18;6.11;95.28
68274;SHT30;55104;47.356;19.448;2022-11-15T08:49:39;6.06;95.91
68274;SHT30;55104;47.356;19.448;2022-11-15T08:53:07;6.12;96.01
68274;SHT30;55104;47.356;19.448;2022-11-15T08:56:28;6.15;95.81
68274;SHT30;55104;47.356;19.448;2022-11-15T08:59:48;6.14;95.91
68274;SHT30;55104;47.356;19.448;2022-11-15T09:03:09;6.14;95.84
68274;SHT30;55104;47.356;19.448;2022-11-15T09:06:30;6.26;96.13
68274;SHT30;55104;47.356;19.448;2022-11-15T09:09:51;6.15;96.42
68274;SHT30;55104;47.356;19.448;2022-11-15T09:13:11;6.24;96.00
68274;SHT30;55104;47.356;19.448;2022-11-15T09:16:32;6.29;96.34
68274;SHT30;55104;47.356;19.448;2022-11-15T09:19:52;6.36;96.19
68274;SHT30;55104;47.356;19.448;2022-11-15T09:23:13;6.44;96.38
68274;SHT30;55104;47.356;19.448;2022-11-15T09:26:33;6.56;95.98
68274;SHT30;55104;47.356;19.448;2022-11-15T09:29:54;6.54;95.74
68274;SHT30;55104;47.356;19.448;2022-11-15T09:33:16;6.60;95.93
68274;SHT30;55104;47.356;19.448;2022-11-15T09:36:36;6.70;95.65
68274;SHT30;55104;47.356;19.448;2022-11-15T09:39:57;6.79;95.34
68274;SHT30;55104;47.356;19.448;2022-11-15T09:50:49;6.95;95.19
68274;SHT30;55104;47.356;19.448;2022-11-15T09:57:39;6.88;95.29
68274;SHT30;55104;47.356;19.448;2022-11-15T10:00:47;6.88;95.24
68274;SHT30;55104;47.356;19.448;2022-11-15T10:03:50;6.95;95.46
68274;SHT30;55104;47.356;19.448;2022-11-15T10:07:20;6.80;95.04
68274;SHT30;55104;47.356;19.448;2022-11-15T10:10:35;6.73;95.42
68274;SHT30;55104;47.356;19.448;2022-11-15T10:13:42;6.69;95.48
68274;SHT30;55104;47.356;19.448;2022-11-15T10:23:12;6.63;96.02
68274;SHT30;55104;47.356;19.448;2022-11-15T10:26:16;6.67;96.12
68274;SHT30;55104;47.356;19.448;2022-11-15T10:29:22;6.67;96.08
68274;SHT30;55104;47.356;19.448;2022-11-15T10:32:28;6.63;96.16
68274;SHT30;55104;47.356;19.448;2022-11-15T10:35:30;6.57;96.53
68274;SHT30;55104;47.356;19.448;2022-11-15T10:38:32;6.57;96.13
68274;SHT30;55104;47.356;19.448;2022-11-15T10:41:37;6.50;96.47
68274;SHT30;55104;47.356;19.448;2022-11-15T10:44:44;6.58;96.78
68274;SHT30;55104;47.356;19.448;2022-11-15T10:47:46;6.61;96.45
68274;SHT30;55104;47.356;19.448;2022-11-15T10:50:50;6.67;96.56
68274;SHT30;55104;47.356;19.448;2022-11-15T10:53:55;6.73;96.42
68274;SHT30;55104;47.356;19.448;2022-11-15T10:57:00;6.83;96.53
68274;SHT30;55104;47.356;19.448;2022-11-15T11:00:27;6.90;96.66
68274;SHT30;55104;47.356;19.448;2022-11-15T11:03:35;6.92;96.25
68274;SHT30;55104;47.356;19.448;2022-11-15T11:06:52;6.90;96.17
68274;SHT30;55104;47.356;19.448;2022-11-15T11:10:25;6.90;96.26
68274;SHT30;55104;47.356;19.448;2022-11-15T11:13:45;6.91;96.23
68274;SHT30;55104;47.356;19.448;2022-11-15T11:16:51;6.99;95.81
68274;SHT30;55104;47.356;19.448;2022-11-15T11:30:17;7.07;96.29
68274;SHT30;55104;47.356;19.448;2022-11-15T11:33:22;7.09;96.18
68274;SHT30;55104;47.356;19.448;2022-11-15T11:36:49;7.19;96.42
68274;SHT30;55104;47.356;19.448;2022-11-15T11:40:40;7.25;96.11
68274;SHT30;55104;47.356;19.448;2022-11-15T11:47:12;7.36;95.70
68274;SHT30;55104;47.356;19.448;2022-11-15T11:50:26;7.26;95.59
68274;SHT30;55104;47.356;19.448;2022-11-15T11:53:37;7.19;95.64
68274;SHT30;55104;47.356;19.448;2022-11-15T11:56:44;7.11;96.15
68274;SHT30;55104;47.356;19.448;2022-11-15T12:00:02;7.20;96.18
68274;SHT30;55104;47.356;19.448;2022-11-15T12:10:33;7.25;96.20
68274;SHT30;55104;47.356;19.448;2022-11-15T12:13:36;7.19;95.95
68274;SHT30;55104;47.356;19.448;2022-11-15T12:16:42;7.23;96.25
68274;SHT30;55104;47.356;19.448;2022-11-15T12:19:45;7.26;95.89
68274;SHT30;55104;47.356;19.448;2022-11-15T12:22:49;7.25;95.94
68274;SHT30;55104;47.356;19.448;2022-11-15T12:26:08;7.22;96.08
68274;SHT30;55104;47.356;19.448;2022-11-15T12:29:41;7.16;95.90
68274;SHT30;55104;47.356;19.448;2022-11-15T12:33:00;7.14;96.18
68274;SHT30;55104;47.356;19.448;2022-11-15T12:36:09;7.11;96.50
68274;SHT30;55104;47.356;19.448;2022-11-15T12:39:13;7.11;96.23
68274;SHT30;55104;47.356;19.448;2022-11-15T12:45:36;7.02;96.83
68274;SHT30;55104;47.356;19.448;2022-11-15T12:54:54;7.30;96.83
68274;SHT30;55104;47.356;19.448;2022-11-15T12:58:24;7.35;96.32
68274;SHT30;55104;47.356;19.448;2022-11-15T13:04:33;7.37;96.26
68274;SHT30;55104;47.356;19.448;2022-11-15T13:10:37;7.50;96.62
68274;SHT30;55104;47.356;19.448;2022-11-15T13:13:44;7.53;96.72
68274;SHT30;55104;47.356;19.448;2022-11-15T13:16:47;7.60;96.50
68274;SHT30;55104;47.356;19.448;2022-11-15T13:23:13;7.64;96.13
68274;SHT30;55104;47.356;19.448;2022-11-15T13:26:17;7.62;96.15
68274;SHT30;55104;47.356;19.448;2022-11-15T13:29:19;7.69;96.07
68274;SHT30;55104;47.356;19.448;2022-11-15T13:32:22;7.73;96.12
68274;SHT30;55104;47.356;19.448;2022-11-15T13:35:26;7.69;96.08
68274;SHT30;55104;47.356;19.448;2022-11-15T13:38:30;7.69;96.13
68274;SHT30;55104;47.356;19.448;2022-11-15T13:41:35;7.63;95.97
68274;SHT30;55104;47.356;19.448;2022-11-15T13:44:37;7.66;96.40
68274;SHT30;55104;47.356;19.448;2022-11-15T13:47:39;7.67;96.59
68274;SHT30;55104;47.356;19.448;2022-11-15T13:50:42;7.67;96.57
68274;SHT30;55104;47.356;19.448;2022-11-15T13:53:48;7.75;96.23
68274;SHT30;55104;47.356;19.448;2022-11-15T13:56:59;7.80;96.16
68274;SHT30;55104;47.356;19.448;2022-11-15T14:03:34;7.87;96.08
68274;SHT30;55104;47.356;19.448;2022-11-15T14:06:57;7.84;96.17
68274;SHT30;55104;47.356;19.448;2022-11-15T14:10:17;7.64;96.16
68274;SHT30;55104;47.356;19.448;2022-11-15T14:13:28;7.69;96.52
68274;SHT30;55104;47.356;19.448;2022-11-15T14:16:48;7.63;96.49
68274;SHT30;55104;47.356;19.448;2022-11-15T14:19:50;7.71;96.37
68274;SHT30;55104;47.356;19.448;2022-11-15T14:23:02;7.60;96.66
68274;SHT30;55104;47.356;19.448;2022-11-15T14:26:04;7.56;96.84
68274;SHT30;55104;47.356;19.448;2022-11-15T14:29:29;7.53;96.93
68274;SHT30;55104;47.356;19.448;2022-11-15T14:32:46;7.53;96.56
68274;SHT30;55104;47.356;19.448;2022-11-15T14:35:50;7.50;96.88
68274;SHT30;55104;47.356;19.448;2022-11-15T14:38:53;7.47;96.94
68274;SHT30;55104;47.356;19.448;2022-11-15T14:41:55;7.52;97.18
68274;SHT30;55104;47.356;19.448;2022-11-15T14:44:58;7.50;97.29
68274;SHT30;55104;47.356;19.448;2022-11-15T14:47:59;7.54;97.38
68274;SHT30;55104;47.356;19.448;2022-11-15T14:51:03;7.54;97.19
68274;SHT30;55104;47.356;19.448;2022-11-15T14:54:05;7.50;97.39
68274;SHT30;55104;47.356;19.448;2022-11-15T14:57:07;7.49;97.43
68274;SHT30;55104;47.356;19.448;2022-11-15T15:00:09;7.49;97.15
68274;SHT30;55104;47.356;19.448;2022-11-15T15:03:14;7.40;97.68
68274;SHT30;55104;47.356;19.448;2022-11-15T15:06:16;7.43;97.64
68274;SHT30;55104;47.356;19.448;2022-11-15T15:09:19;7.46;97.77
68274;SHT30;55104;47.356;19.448;2022-11-15T15:12:23;7.46;97.76
68274;SHT30;55104;47.356;19.448;2022-11-15T15:15:33;7.49;97.82
68274;SHT30;55104;47.356;19.448;2022-11-15T15:18:35;7.49;97.70
68274;SHT30;55104;47.356;19.448;2022-11-15T15:21:37;7.47;97.76
68274;SHT30;55104;47.356;19.448;2022-11-15T15:24:39;7.45;97.84
68274;SHT30;55104;47.356;19.448;2022-11-15T15:27:41;7.43;97.86
68274;SHT30;55104;47.356;19.448;2022-11-15T15:30:47;7.42;97.69
68274;SHT30;55104;47.356;19.448;2022-11-15T15:33:51;7.47;97.76
68274;SHT30;55104;47.356;19.448;2022-11-15T15:37:24;7.52;97.68
68274;SHT30;55104;47.356;19.448;2022-11-15T15:40:28;7.52;97.49
68274;SHT30;55104;47.356;19.448;2022-11-15T15:43:31;7.53;97.44
68274;SHT30;55104;47.356;19.448;2022-11-15T15:46:33;7.54;97.41
68274;SHT30;55104;47.356;19.448;2022-11-15T15:49:36;7.54;97.54
68274;SHT30;55104;47.356;19.448;2022-11-15T15:52:38;7.50;97.70
68274;SHT30;55104;47.356;19.448;2022-11-15T15:55:40;7.50;97.70
68274;SHT30;55104;47.356;19.448;2022-11-15T15:58:42;7.56;97.46
68274;SHT30;55104;47.356;19.448;2022-11-15T16:01:44;7.53;97.51
68274;SHT30;55104;47.356;19.448;2022-11-15T16:04:46;7.52;97.69
68274;SHT30;55104;47.356;19.448;2022-11-15T16:07:48;7.54;97.67
68274;SHT30;55104;47.356;19.448;2022-11-15T16:10:52;7.56;97.72
68274;SHT30;55104;47.356;19.448;2022-11-15T16:13:54;7.57;97.58
68274;SHT30;55104;47.356;19.448;2022-11-15T16:16:56;7.49;97.71
68274;SHT30;55104;47.356;19.448;2022-11-15T16:19:58;7.50;97.83
68274;SHT30;55104;47.356;19.448;2022-11-15T16:23:01;7.50;97.79
68274;SHT30;55104;47.356;19.448;2022-11-15T16:26:36;7.53;97.77
68274;SHT30;55104;47.356;19.448;2022-11-15T16:29:38;7.53;97.56
68274;SHT30;55104;47.356;19.448;2022-11-15T16:32:40;7.56;97.54
68274;SHT30;55104;47.356;19.448;2022-11-15T16:35:42;7.54;97.73
68274;SHT30;55104;47.356;19.448;2022-11-15T16:38:44;7.56;97.65
68274;SHT30;55104;47.356;19.448;2022-11-15T16:41:46;7.50;97.55
68274;SHT30;55104;47.356;19.448;2022-11-15T16:44:48;7.54;97.56
68274;SHT30;55104;47.356;19.448;2022-11-15T16:47:52;7.53;97.78
68274;SHT30;55104;47.356;19.448;2022-11-15T16:50:57;7.53;97.90
68274;SHT30;55104;47.356;19.448;2022-11-15T16:53:59;7.52;98.04
68274;SHT30;55104;47.356;19.448;2022-11-15T16:57:01;7.57;97.80
68274;SHT30;55104;47.356;19.448;2022-11-15T17:00:04;7.52;97.92
68274;SHT30;55104;47.356;19.448;2022-11-15T17:03:07;7.50;97.91
68274;SHT30;55104;47.356;19.448;2022-11-15T17:06:10;7.47;98.01
68274;SHT30;55104;47.356;19.448;2022-11-15T17:09:17;7.50;98.13
68274;SHT30;55104;47.356;19.448;2022-11-15T17:12:19;7.53;97.77
68274;SHT30;55104;47.356;19.448;2022-11-15T17:15:21;7.49;97.96
68274;SHT30;55104;47.356;19.448;2022-11-15T17:18:25;7.49;97.92
68274;SHT30;55104;47.356;19.448;2022-11-15T17:21:27;7.46;98.16
68274;SHT30;55104;47.356;19.448;2022-11-15T17:24:34;7.46;98.22
68274;SHT30;55104;47.356;19.448;2022-11-15T17:27:36;7.46;98.30
68274;SHT30;55104;47.356;19.448;2022-11-15T17:30:42;7.49;98.19
68274;SHT30;55104;47.356;19.448;2022-11-15T17:33:44;7.43;98.30
68274;SHT30;55104;47.356;19.448;2022-11-15T17:36:47;7.40;98.28
68274;SHT30;55104;47.356;19.448;2022-11-15T17:39:49;7.43;98.28
68274;SHT30;55104;47.356;19.448;2022-11-15T17:42:51;7.45;98.18
68274;SHT30;55104;47.356;19.448;2022-11-15T17:45:53;7.47;98.13
68274;SHT30;55104;47.356;19.448;2022-11-15T17:48:56;7.47;98.14
68274;SHT30;55104;47.356;19.448;2022-11-15T17:51:58;7.46;98.03
68274;SHT30;55104;47.356;19.448;2022-11-15T17:55:00;7.40;98.18
68274;SHT30;55104;47.356;19.448;2022-11-15T17:58:02;7.35;98.19
68274;SHT30;55104;47.356;19.448;2022-11-15T18:01:11;7.42;98.16
68274;SHT30;55104;47.356;19.448;2022-11-15T18:04:15;7.47;98.07
68274;SHT30;55104;47.356;19.448;2022-11-15T18:07:17;7.39;98.11
68274;SHT30;55104;47.356;19.448;2022-11-15T18:10:20;7.42;98.19
68274;SHT30;55104;47.356;19.448;2022-11-15T18:13:22;7.40;98.26
68274;SHT30;55104;47.356;19.448;2022-11-15T18:16:25;7.40;98.22
68274;SHT30;55104;47.356;19.448;2022-11-15T18:19:29;7.45;98.14
68274;SHT30;55104;47.356;19.448;2022-11-15T18:22:31;7.39;98.20
68274;SHT30;55104;47.356;19.448;2022-11-15T18:25:32;7.42;98.27
68274;SHT30;55104;47.356;19.448;2022-11-15T18:28:37;7.40;98.12
68274;SHT30;55104;47.356;19.448;2022-11-15T18:31:39;7.40;98.21
68274;SHT30;55104;47.356;19.448;2022-11-15T18:34:48;7.39;98.19
68274;SHT30;55104;47.356;19.448;2022-11-15T18:37:50;7.39;98.38
68274;SHT30;55104;47.356;19.448;2022-11-15T18:40:52;7.42;98.37
68274;SHT30;55104;47.356;19.448;2022-11-15T18:43:55;7.42;98.36
68274;SHT30;55104;47.356;19.448;2022-11-15T18:46:57;7.43;98.51
68274;SHT30;55104;47.356;19.448;2022-11-15T18:49:59;7.50;98.56
68274;SHT30;55104;47.356;19.448;2022-11-15T18:53:02;7.52;98.68
68274;SHT30;55104;47.356;19.448;2022-11-15T18:56:07;7.60;98.65
68274;SHT30;55104;47.356;19.448;2022-11-15T18:59:10;7.66;98.57
68274;SHT30;55104;47.356;19.448;2022-11-15T19:02:12;7.69;98.59
68274;SHT30;55104;47.356;19.448;2022-11-15T19:05:14;7.74;98.63
68274;SHT30;55104;47.356;19.448;2022-11-15T19:08:19;7.73;98.24
68274;SHT30;55104;47.356;19.448;2022-11-15T19:11:26;7.77;98.43
68274;SHT30;55104;47.356;19.448;2022-11-15T19:14:29;7.78;98.17
68274;SHT30;55104;47.356;19.448;2022-11-15T19:17:31;7.77;98.20
68274;SHT30;55104;47.356;19.448;2022-11-15T19:20:40;7.78;98.14
68274;SHT30;55104;47.356;19.448;2022-11-15T19:23:42;7.81;98.06
68274;SHT30;55104;47.356;19.448;2022-11-15T19:26:44;7.78;97.95
68274;SHT30;55104;47.356;19.448;2022-11-15T19:29:46;7.81;97.94
68274;SHT30;55104;47.356;19.448;2022-11-15T19:32:48;7.81;97.89
68274;SHT30;55104;47.356;19.448;2022-11-15T19:35:50;7.81;97.76
68274;SHT30;55104;47.356;19.448;2022-11-15T19:38:53;7.78;97.84
68274;SHT30;55104;47.356;19.448;2022-11-15T19:41:55;7.80;97.61
68274;SHT30;55104;47.356;19.448;2022-11-15T19:44:57;7.74;97.72
68274;SHT30;55104;47.356;19.448;2022-11-15T19:47:59;7.73;97.95
68274;SHT30;55104;47.356;19.448;2022-11-15T19:51:09;7.73;97.97
68274;SHT30;55104;47.356;19.448;2022-11-15T19:54:11;7.71;97.82
68274;SHT30;55104;47.356;19.448;2022-11-15T19:57:14;7.73;97.90
68274;SHT30;55104;47.356;19.448;2022-11-15T20:00:16;7.73;97.96
68274;SHT30;55104;47.356;19.448;2022-11-15T20:03:19;7.69;97.90
68274;SHT30;55104;47.356;19.448;2022-11-15T20:06:24;7.69;97.90
68274;SHT30;55104;47.356;19.448;2022-11-15T20:09:26;7.70;97.74
68274;SHT30;55104;47.356;19.448;2022-11-15T20:12:28;7.59;97.91
68274;SHT30;55104;47.356;19.448;2022-11-15T20:15:30;7.60;98.06
68274;SHT30;55104;47.356;19.448;2022-11-15T20:18:32;7.50;98.09
68274;SHT30;55104;47.356;19.448;2022-11-15T20:21:35;7.49;98.13
68274;SHT30;55104;47.356;19.448;2022-11-15T20:24:37;7.52;98.20
68274;SHT30;55104;47.356;19.448;2022-11-15T20:27:39;7.53;98.34
68274;SHT30;55104;47.356;19.448;2022-11-15T20:30:44;7.54;98.35
68274;SHT30;55104;47.356;19.448;2022-11-15T20:33:46;7.53;98.44
68274;SHT30;55104;47.356;19.448;2022-11-15T20:36:48;7.59;98.43
68274;SHT30;55104;47.356;19.448;2022-11-15T20:39:50;7.62;98.38
68274;SHT30;55104;47.356;19.448;2022-11-15T20:42:52;7.62;98.29
68274;SHT30;55104;47.356;19.448;2022-11-15T20:45:54;7.62;98.28
68274;SHT30;55104;47.356;19.448;2022-11-15T20:48:57;7.66;98.19
68274;SHT30;55104;47.356;19.448;2022-11-15T20:51:59;7.64;98.18
68274;SHT30;55104;47.356;19.448;2022-11-15T20:55:01;7.64;98.16
68274;SHT30;55104;47.356;19.448;2022-11-15T20:58:03;7.69;98.12
68274;SHT30;55104;47.356;19.448;2022-11-15T21:01:07;7.64;98.18
68274;SHT30;55104;47.356;19.448;2022-11-15T21:04:09;7.64;98.17
68274;SHT30;55104;47.356;19.448;2022-11-15T21:07:11;7.63;98.20
68274;SHT30;55104;47.356;19.448;2022-11-15T21:10:14;7.67;98.09
68274;SHT30;55104;47.356;19.448;2022-11-15T21:13:35;7.66;98.22
68274;SHT30;55104;47.356;19.448;2022-11-15T21:16:37;7.63;98.32
68274;SHT30;55104;47.356;19.448;2022-11-15T21:19:40;7.62;98.42
68274;SHT30;55104;47.356;19.448;2022-11-15T21:22:42;7.63;98.37
68274;SHT30;55104;47.356;19.448;2022-11-15T21:25:51;7.63;98.42
68274;SHT30;55104;47.356;19.448;2022-11-15T21:28:53;7.63;98.44
68274;SHT30;55104;47.356;19.448;2022-11-15T21:31:55;7.64;98.33
68274;SHT30;55104;47.356;19.448;2022-11-15T21:34:57;7.66;98.41